Olga, Washington
Current Conditions -  °F | °C
As of 3:15 AM on Wednesday 22 Oct 2014 (Local Time) from KORS Reporting Station
Light Rain Light Rain  
Wind Chill: 55°   Ceiling: 2700
Heat Index: 55°   Visibility: 6mi
Dew Point: 50°   Wind: 10mph
Humidity: 82%   Direction: 170°S
Pressure: 29.55"   Gusts: 21mph
Location:  48.62°N, 122.83°W
Report Text: KORS 221015Z AUTO 17009G18KT 030V040 6SM -RA BKN027 BKN038 BKN046 13/10 A2955 RMK AO2 P0001
Loading
Personal Weather Stations






























Interactive Weather Map New forecast layout! Learn more

10-Day Weather Forecast

Advertisements
Track Severe Weather on mobile